createdAt,value
2017-05-04T00:02:01.812Z,71.691
2017-05-04T00:04:54.484Z,71.209
2017-05-04T00:07:48.977Z,71.378
2017-05-04T00:10:43.329Z,71.608
2017-05-04T00:13:37.898Z,71.578
2017-05-04T00:16:32.352Z,71.808
2017-05-04T00:19:26.727Z,71.920
2017-05-04T00:22:21.016Z,71.443
2017-05-04T00:25:15.394Z,72.037
2017-05-04T00:28:09.718Z,71.748
2017-05-04T00:31:04.799Z,71.997
2017-05-04T00:33:58.470Z,72.140
2017-05-04T00:36:52.897Z,71.749
2017-05-04T00:39:47.164Z,71.727
2017-05-04T00:42:41.551Z,71.946
2017-05-04T00:45:35.965Z,71.534
2017-05-04T00:48:31.960Z,71.900
2017-05-04T00:51:24.639Z,72.076
2017-05-04T00:54:18.979Z,71.843
2017-05-04T00:57:13.350Z,71.688
2017-05-04T01:00:07.752Z,71.948
2017-05-04T01:03:02.102Z,70.903
2017-05-04T01:05:56.585Z,71.595
2017-05-04T01:08:51.019Z,71.146
2017-05-04T01:11:45.453Z,70.966
2017-05-04T01:14:39.860Z,70.001
2017-05-04T01:17:34.242Z,70.820
2017-05-04T01:20:28.522Z,70.258
2017-05-04T01:23:22.875Z,71.187
2017-05-04T01:26:17.127Z,70.711
2017-05-04T01:29:11.555Z,69.460
2017-05-04T01:32:05.968Z,70.291
2017-05-04T01:35:00.330Z,70.601
2017-05-04T01:37:54.652Z,69.921
2017-05-04T01:40:48.999Z,70.532
2017-05-04T01:43:43.344Z,69.850
2017-05-04T01:46:37.691Z,70.782
2017-05-04T01:49:32.081Z,70.580
2017-05-04T01:52:26.565Z,71.262
2017-05-04T01:55:20.893Z,71.576
2017-05-04T01:58:15.221Z,71.146
2017-05-04T02:01:09.533Z,71.961
2017-05-04T02:04:04.074Z,71.795
2017-05-04T02:06:58.440Z,71.521
2017-05-04T02:09:52.622Z,72.288
2017-05-04T02:12:46.944Z,72.386
2017-05-04T02:15:41.219Z,72.925
2017-05-04T02:18:35.646Z,73.547
2017-05-04T02:21:29.925Z,74.306
2017-05-04T02:24:24.285Z,74.040
2017-05-04T02:27:18.721Z,74.325
2017-05-04T02:30:12.931Z,76.179
2017-05-04T02:33:07.241Z,75.772
2017-05-04T02:36:01.675Z,75.938
2017-05-04T02:38:55.963Z,75.738
2017-05-04T02:41:50.248Z,76.338
2017-05-04T02:44:44.686Z,76.075
2017-05-04T02:47:39.075Z,75.386
2017-05-04T02:50:33.334Z,75.350
2017-05-04T02:53:27.595Z,75.838
2017-05-04T02:56:21.933Z,76.268
2017-05-04T02:59:16.211Z,76.491
2017-05-04T03:02:10.548Z,77.378
2017-05-04T03:05:04.791Z,77.805
2017-05-04T03:07:59.094Z,78.487
2017-05-04T03:10:53.403Z,79.302
2017-05-04T03:13:47.720Z,79.850
2017-05-04T03:16:41.920Z,79.673
2017-05-04T03:19:36.260Z,80.053
2017-05-04T03:22:30.481Z,81.052
2017-05-04T03:25:24.701Z,80.668
2017-05-04T03:28:19.035Z,80.556
2017-05-04T03:31:15.027Z,81.346
2017-05-04T03:34:07.491Z,81.133
2017-05-04T03:37:01.881Z,82.062
2017-05-04T03:39:56.142Z,81.952
2017-05-04T03:42:50.376Z,82.008
2017-05-04T03:45:44.643Z,82.850
2017-05-04T03:48:38.880Z,83.151
2017-05-04T03:51:33.082Z,83.351
2017-05-04T03:54:29.159Z,83.480
2017-05-04T03:57:21.616Z,83.470
2017-05-04T04:00:15.854Z,84.096
2017-05-04T04:03:11.866Z,84.046
2017-05-04T04:06:04.378Z,84.487
2017-05-04T04:09:00.276Z,84.465
2017-05-04T04:11:52.925Z,84.780
2017-05-04T04:14:47.062Z,85.142
2017-05-04T04:17:41.226Z,85.674
2017-05-04T04:20:35.472Z,84.844
2017-05-04T04:23:29.934Z,85.272
2017-05-04T04:26:24.148Z,85.066
2017-05-04T04:29:18.506Z,85.626
2017-05-04T04:32:12.643Z,85.372
2017-05-04T04:35:08.605Z,85.369
2017-05-04T04:38:01.013Z,84.873
2017-05-04T04:40:55.194Z,85.215
2017-05-04T04:43:49.380Z,85.176
2017-05-04T04:46:43.673Z,84.937
2017-05-04T04:49:37.878Z,85.071
2017-05-04T04:52:32.104Z,85.278
2017-05-04T04:55:26.355Z,85.475
2017-05-04T04:58:22.248Z,84.815
2017-05-04T05:01:14.814Z,85.146
2017-05-04T05:04:09.351Z,85.168
2017-05-04T05:07:03.595Z,84.892
2017-05-04T05:09:57.826Z,85.009
2017-05-04T05:12:52.268Z,85.095
2017-05-04T05:15:48.290Z,84.911
2017-05-04T05:18:40.679Z,85.175
2017-05-04T05:21:34.915Z,85.549
2017-05-04T05:24:29.138Z,85.523
2017-05-04T05:27:23.310Z,85.574
2017-05-04T05:30:17.500Z,85.919
2017-05-04T05:33:13.964Z,86.071
2017-05-04T05:36:06.481Z,86.168
2017-05-04T05:39:00.787Z,86.181
2017-05-04T05:41:55.058Z,86.068
2017-05-04T05:44:49.308Z,85.863
2017-05-04T05:47:43.569Z,86.289
2017-05-04T05:50:37.799Z,86.171
2017-05-04T05:53:32.019Z,86.366
2017-05-04T05:56:28.083Z,86.786
2017-05-04T05:59:20.504Z,86.625
2017-05-04T06:02:14.761Z,86.634
2017-05-04T06:05:09.057Z,87.208
2017-05-04T06:08:03.267Z,87.112
2017-05-04T06:10:57.456Z,87.094
2017-05-04T06:13:51.925Z,87.492
2017-05-04T06:16:46.226Z,87.472
2017-05-04T06:19:40.395Z,87.655
2017-05-04T06:22:34.525Z,87.581
2017-05-04T06:25:28.664Z,87.802
2017-05-04T06:28:23.119Z,88.008
2017-05-04T06:31:17.380Z,87.509
2017-05-04T06:34:11.654Z,87.937
2017-05-04T06:37:05.881Z,87.861
2017-05-04T06:40:01.808Z,88.035
2017-05-04T06:42:54.352Z,88.178
2017-05-04T06:45:50.246Z,87.821
2017-05-04T06:48:42.781Z,88.509
2017-05-04T06:51:36.974Z,88.521
2017-05-04T06:54:32.953Z,88.970
2017-05-04T06:57:25.581Z,88.557
2017-05-04T07:00:21.462Z,88.434
2017-05-04T07:03:13.978Z,88.392
2017-05-04T07:06:08.249Z,88.772
2017-05-04T07:09:04.183Z,88.170
2017-05-04T07:11:58.466Z,88.653
2017-05-04T07:14:51.056Z,88.386
2017-05-04T07:17:45.329Z,88.409
2017-05-04T07:20:39.666Z,88.209
2017-05-04T07:23:33.969Z,88.113
2017-05-04T07:26:28.142Z,88.311
2017-05-04T07:29:22.496Z,87.755
2017-05-04T07:32:16.830Z,87.585
2017-05-04T07:35:11.157Z,88.158
2017-05-04T07:38:05.467Z,88.158
2017-05-04T07:40:59.785Z,88.438
2017-05-04T07:43:54.070Z,88.468
2017-05-04T07:46:48.304Z,88.599
2017-05-04T07:49:42.510Z,88.862
2017-05-04T07:52:36.936Z,88.771
2017-05-04T07:55:33.327Z,88.332
2017-05-04T07:58:25.954Z,88.556
2017-05-04T08:01:20.175Z,88.606
2017-05-04T08:04:14.499Z,88.960
2017-05-04T08:07:10.561Z,88.636
2017-05-04T08:10:03.087Z,88.689
2017-05-04T08:12:59.026Z,88.708
2017-05-04T08:15:51.406Z,88.458
2017-05-04T08:18:45.593Z,88.603
2017-05-04T08:21:41.615Z,88.949
2017-05-04T08:24:34.127Z,88.863
2017-05-04T08:27:28.461Z,88.785
2017-05-04T08:30:22.772Z,88.837
2017-05-04T08:33:17.028Z,88.819
2017-05-04T08:36:11.329Z,88.762
2017-05-04T08:39:05.565Z,88.718
2017-05-04T08:41:59.900Z,88.975
2017-05-04T08:44:54.144Z,89.244
2017-05-04T08:47:48.339Z,88.950
2017-05-04T08:50:42.598Z,88.940
2017-05-04T08:53:36.766Z,89.195
2017-05-04T08:56:30.986Z,89.174
2017-05-04T08:59:27.114Z,89.289
2017-05-04T09:02:19.618Z,89.454
2017-05-04T09:05:13.844Z,89.077
2017-05-04T09:08:08.174Z,89.038
2017-05-04T09:11:02.375Z,88.885
2017-05-04T09:13:56.720Z,89.016
2017-05-04T09:16:51.000Z,89.447
2017-05-04T09:19:45.293Z,89.372
2017-05-04T09:22:39.567Z,88.904
2017-05-04T09:25:33.806Z,88.975
2017-05-04T09:28:28.056Z,88.989
2017-05-04T09:31:22.339Z,88.509
2017-05-04T09:34:16.648Z,88.602
2017-05-04T09:37:10.908Z,88.583
2017-05-04T09:40:05.140Z,88.816
2017-05-04T09:42:59.547Z,88.666
2017-05-04T09:45:53.879Z,88.393
2017-05-04T09:48:48.046Z,88.367
2017-05-04T09:51:44.060Z,88.270
2017-05-04T09:54:36.614Z,88.506
2017-05-04T09:57:30.940Z,88.670
2017-05-04T10:00:25.175Z,88.825
2017-05-04T10:03:19.616Z,88.457
2017-05-04T10:06:13.961Z,88.509
2017-05-04T10:09:08.310Z,88.686
2017-05-04T10:12:02.659Z,88.591
2017-05-04T10:14:57.114Z,88.798
2017-05-04T10:17:51.516Z,88.585
2017-05-04T10:20:45.924Z,88.877
2017-05-04T10:23:40.283Z,88.889
2017-05-04T10:26:34.633Z,89.186
2017-05-04T10:29:30.725Z,89.197
2017-05-04T10:32:23.374Z,89.485
2017-05-04T10:35:17.677Z,89.662
2017-05-04T10:38:12.028Z,89.690
2017-05-04T10:41:06.373Z,89.699
2017-05-04T10:44:00.671Z,89.842
2017-05-04T10:46:55.011Z,89.923
2017-05-04T10:49:49.259Z,90.207
2017-05-04T10:52:43.533Z,90.359
2017-05-04T10:55:37.791Z,90.227
2017-05-04T10:58:32.062Z,89.905
2017-05-04T11:01:26.357Z,89.790
2017-05-04T11:04:20.871Z,90.255
2017-05-04T11:07:15.204Z,90.276
2017-05-04T11:10:09.502Z,90.292
2017-05-04T11:13:04.119Z,90.000
2017-05-04T11:16:00.059Z,90.151
2017-05-04T11:18:52.578Z,90.240
2017-05-04T11:21:46.820Z,90.625
2017-05-04T11:24:41.161Z,90.112
2017-05-04T11:27:35.382Z,90.396
2017-05-04T11:30:31.809Z,90.205
2017-05-04T11:33:24.337Z,90.576
2017-05-04T11:36:18.610Z,90.389
2017-05-04T11:39:14.657Z,90.629
2017-05-04T11:42:07.134Z,90.701
2017-05-04T11:45:01.409Z,90.477
2017-05-04T11:47:55.594Z,90.750
2017-05-04T11:50:51.689Z,90.565
2017-05-04T11:53:44.290Z,90.511
2017-05-04T11:56:38.588Z,90.628
2017-05-04T11:59:32.851Z,90.224
2017-05-04T12:02:27.029Z,90.360
2017-05-04T12:05:21.330Z,90.431
2017-05-04T12:08:15.705Z,90.703
2017-05-04T12:11:09.959Z,90.541
2017-05-04T12:14:04.125Z,90.254
2017-05-04T12:16:58.505Z,90.431
2017-05-04T12:19:52.749Z,90.575
2017-05-04T12:22:48.808Z,90.688
2017-05-04T12:25:41.754Z,90.497
2017-05-04T12:28:36.048Z,89.916
2017-05-04T12:31:30.308Z,90.246
2017-05-04T12:34:24.645Z,90.106
2017-05-04T12:37:18.931Z,90.336
2017-05-04T12:40:13.267Z,90.201
2017-05-04T12:43:07.647Z,90.368
2017-05-04T12:46:01.936Z,90.279
2017-05-04T12:48:56.203Z,89.883
2017-05-04T12:51:50.470Z,89.875
2017-05-04T12:54:44.765Z,90.347
2017-05-04T12:57:39.089Z,90.115
2017-05-04T13:00:33.369Z,90.125
2017-05-04T13:03:27.670Z,90.267
2017-05-04T13:06:23.722Z,90.216
2017-05-04T13:09:16.280Z,89.415
2017-05-04T13:12:10.449Z,90.031
2017-05-04T13:15:04.639Z,89.959
2017-05-04T13:17:59.006Z,89.826
2017-05-04T13:20:53.305Z,89.998
2017-05-04T13:23:47.643Z,90.083
2017-05-04T13:26:41.838Z,90.290
2017-05-04T13:29:37.759Z,89.980
2017-05-04T13:32:30.344Z,90.111
2017-05-04T13:35:24.592Z,90.189
2017-05-04T13:38:18.832Z,90.498
2017-05-04T13:41:13.093Z,90.315
2017-05-04T13:44:07.362Z,90.797
2017-05-04T13:47:01.661Z,90.820
2017-05-04T13:49:55.951Z,90.621
2017-05-04T13:52:51.831Z,90.785
2017-05-04T13:55:44.293Z,90.723
2017-05-04T13:58:38.595Z,90.758
2017-05-04T14:01:32.869Z,90.916
2017-05-04T14:04:27.145Z,90.879
2017-05-04T14:07:21.424Z,91.253
2017-05-04T14:10:15.665Z,91.167
2017-05-04T14:13:09.935Z,91.352
2017-05-04T14:16:04.156Z,91.430
2017-05-04T14:18:58.383Z,91.128
2017-05-04T14:21:52.675Z,91.067
2017-05-04T14:24:46.942Z,91.167
2017-05-04T14:27:41.099Z,91.486
2017-05-04T14:30:35.357Z,91.340
2017-05-04T14:33:29.635Z,91.541
2017-05-04T14:36:23.942Z,91.538
2017-05-04T14:39:18.267Z,91.449
2017-05-04T14:42:14.264Z,91.547
2017-05-04T14:45:07.119Z,91.453
2017-05-04T14:48:01.270Z,91.506
2017-05-04T14:50:55.511Z,91.201
2017-05-04T14:53:49.709Z,91.245
2017-05-04T14:56:44.061Z,91.424
2017-05-04T14:59:38.352Z,91.506
2017-05-04T15:02:34.297Z,91.534
2017-05-04T15:05:26.879Z,91.599
2017-05-04T15:08:21.053Z,91.601
2017-05-04T15:11:15.283Z,91.601
2017-05-04T15:14:09.359Z,91.713
2017-05-04T15:17:03.601Z,91.638
2017-05-04T15:19:57.787Z,91.847
2017-05-04T15:22:52.347Z,91.969
2017-05-04T15:25:48.341Z,91.915
2017-05-04T15:28:40.775Z,91.775
2017-05-04T15:31:35.030Z,91.738
2017-05-04T15:34:29.359Z,91.918
2017-05-04T15:37:23.485Z,91.693
2017-05-04T15:40:17.781Z,91.823
2017-05-04T15:43:11.899Z,91.866
2017-05-04T15:46:06.066Z,91.771
2017-05-04T15:49:00.280Z,91.861
2017-05-04T15:51:54.624Z,91.708
2017-05-04T15:54:48.878Z,91.824
2017-05-04T15:57:43.120Z,91.894
2017-05-04T16:00:37.277Z,91.765
2017-05-04T16:03:31.560Z,91.933
2017-05-04T16:06:25.742Z,91.984
2017-05-04T16:09:20.113Z,92.041
2017-05-04T16:12:14.364Z,91.937
2017-05-04T16:15:08.621Z,92.034
2017-05-04T16:18:02.778Z,92.183
2017-05-04T16:20:57.051Z,91.937
2017-05-04T16:23:52.939Z,92.336
2017-05-04T16:26:45.538Z,92.470
2017-05-04T16:29:41.462Z,92.073
2017-05-04T16:32:35.825Z,92.314
2017-05-04T16:35:28.463Z,92.387
2017-05-04T16:38:22.761Z,92.779
2017-05-04T16:41:16.996Z,92.791
2017-05-04T16:44:11.307Z,92.717
2017-05-04T16:47:05.579Z,92.879
2017-05-04T16:49:59.792Z,92.943
2017-05-04T16:52:54.017Z,93.152
2017-05-04T16:55:48.347Z,93.197
2017-05-04T16:58:42.739Z,93.166
2017-05-04T17:01:36.992Z,93.043
2017-05-04T17:04:31.334Z,93.023
2017-05-04T17:07:27.424Z,92.971
2017-05-04T17:10:20.190Z,93.041
2017-05-04T17:13:16.305Z,93.312
2017-05-04T17:16:10.353Z,93.514
2017-05-04T17:19:04.605Z,93.635
2017-05-04T17:21:57.276Z,93.576
2017-05-04T17:24:53.188Z,93.602
2017-05-04T17:27:45.709Z,93.776
2017-05-04T17:30:40.028Z,93.848
2017-05-04T17:33:34.256Z,93.860
2017-05-04T17:36:28.560Z,93.787
2017-05-04T17:39:22.643Z,93.791
2017-05-04T17:42:16.978Z,93.785
2017-05-04T17:45:11.212Z,93.878
2017-05-04T17:48:05.358Z,93.878
2017-05-04T17:51:01.416Z,93.942
2017-05-04T17:53:54.000Z,94.065
2017-05-04T17:56:48.331Z,94.128
2017-05-04T17:59:42.448Z,94.248
2017-05-04T18:02:36.619Z,94.192
2017-05-04T18:05:30.921Z,94.421
2017-05-04T18:08:25.179Z,94.315
2017-05-04T18:11:19.383Z,94.519
2017-05-04T18:14:15.323Z,94.532
2017-05-04T18:17:07.901Z,94.472
2017-05-04T18:20:03.891Z,94.601
2017-05-04T18:22:58.138Z,94.713
2017-05-04T18:25:50.693Z,94.741
2017-05-04T18:28:44.972Z,94.737
2017-05-04T18:31:39.229Z,94.888
2017-05-04T18:34:35.156Z,95.060
2017-05-04T18:37:27.777Z,95.036
2017-05-04T18:40:23.708Z,95.118
2017-05-04T18:43:16.224Z,95.166
2017-05-04T18:46:10.525Z,95.211
2017-05-04T18:49:04.707Z,95.286
2017-05-04T18:51:58.918Z,95.351
2017-05-04T18:54:54.949Z,95.228
2017-05-04T18:57:47.475Z,95.291
2017-05-04T19:00:41.763Z,95.502
2017-05-04T19:03:37.602Z,95.372
2017-05-04T19:06:30.041Z,95.417
2017-05-04T19:09:24.327Z,95.495
2017-05-04T19:12:18.614Z,95.427
2017-05-04T19:15:12.971Z,95.498
2017-05-04T19:18:07.158Z,95.628
2017-05-04T19:21:01.366Z,95.735
2017-05-04T19:23:55.614Z,95.632
2017-05-04T19:26:49.868Z,95.765
2017-05-04T19:29:44.101Z,95.903
2017-05-04T19:32:38.453Z,95.968
2017-05-04T19:35:32.739Z,95.903
2017-05-04T19:38:27.311Z,95.882
2017-05-04T19:41:21.522Z,95.789
2017-05-04T19:44:15.782Z,95.784
2017-05-04T19:47:10.090Z,95.770
2017-05-04T19:50:04.410Z,95.815
2017-05-04T19:52:58.597Z,95.764
2017-05-04T19:55:52.886Z,95.815
2017-05-04T19:58:48.984Z,95.748
2017-05-04T20:01:41.363Z,95.778
2017-05-04T20:04:37.348Z,95.707
2017-05-04T20:07:29.959Z,95.772
2017-05-04T20:10:24.112Z,95.717
2017-05-04T20:13:20.093Z,95.707
2017-05-04T20:16:12.714Z,95.965
2017-05-04T20:19:06.967Z,95.701
2017-05-04T20:22:02.881Z,95.777
2017-05-04T20:24:55.438Z,95.797
2017-05-04T20:27:51.415Z,95.613
2017-05-04T20:30:43.924Z,95.756
2017-05-04T20:33:38.226Z,95.746
2017-05-04T20:36:32.507Z,95.748
2017-05-04T20:39:26.722Z,95.738
2017-05-04T20:42:22.783Z,95.809
2017-05-04T20:45:15.353Z,95.787
2017-05-04T20:48:09.952Z,95.840
2017-05-04T20:51:04.233Z,95.779
2017-05-04T20:53:58.482Z,95.826
2017-05-04T20:56:52.699Z,95.777
2017-05-04T20:59:46.999Z,95.773
2017-05-04T21:02:41.341Z,95.842
2017-05-04T21:05:37.332Z,95.930
2017-05-04T21:08:29.949Z,96.022
2017-05-04T21:11:24.187Z,95.904
2017-05-04T21:14:18.415Z,95.879
2017-05-04T21:17:12.813Z,95.848
2017-05-04T21:20:07.129Z,95.947
2017-05-04T21:23:01.319Z,95.850
2017-05-04T21:25:55.447Z,96.003
2017-05-04T21:28:49.730Z,95.936
2017-05-04T21:31:44.050Z,95.985
2017-05-04T21:34:38.326Z,96.001
2017-05-04T21:37:34.317Z,96.032
2017-05-04T21:40:26.946Z,96.059
2017-05-04T21:43:21.244Z,96.024
2017-05-04T21:46:15.518Z,95.962
2017-05-04T21:49:09.871Z,95.962
2017-05-04T21:52:04.126Z,95.932
2017-05-04T21:54:58.473Z,96.098
2017-05-04T21:57:52.744Z,96.039
2017-05-04T22:00:46.994Z,95.988
2017-05-04T22:03:43.001Z,95.936
2017-05-04T22:06:37.313Z,95.947
2017-05-04T22:09:29.795Z,95.983
2017-05-04T22:12:24.025Z,96.055
2017-05-04T22:15:18.318Z,96.003
2017-05-04T22:18:12.592Z,96.087
2017-05-04T22:21:08.568Z,96.041
2017-05-04T22:24:01.410Z,96.144
2017-05-04T22:26:55.647Z,96.155
2017-05-04T22:29:51.705Z,96.247
2017-05-04T22:32:44.340Z,96.333
2017-05-04T22:35:38.605Z,96.235
2017-05-04T22:38:32.906Z,96.169
2017-05-04T22:41:28.917Z,96.083
2017-05-04T22:44:23.410Z,96.080
2017-05-04T22:47:15.874Z,96.183
2017-05-04T22:50:10.149Z,95.991
2017-05-04T22:53:04.535Z,96.011
2017-05-04T22:55:58.870Z,96.003
2017-05-04T22:58:53.074Z,95.973
2017-05-04T23:01:49.073Z,95.865
2017-05-04T23:04:41.736Z,95.947
2017-05-04T23:07:36.040Z,95.916
2017-05-04T23:10:30.375Z,95.904
2017-05-04T23:13:26.312Z,95.843
2017-05-04T23:16:18.975Z,95.868
2017-05-04T23:19:13.209Z,95.903
2017-05-04T23:22:07.647Z,95.716
2017-05-04T23:25:01.999Z,95.586
2017-05-04T23:27:56.286Z,95.660
2017-05-04T23:30:50.493Z,95.387
2017-05-04T23:33:44.779Z,95.463
2017-05-04T23:36:39.042Z,95.442
2017-05-04T23:39:33.326Z,95.495
2017-05-04T23:42:27.643Z,95.386
2017-05-04T23:45:21.995Z,95.312
2017-05-04T23:48:16.443Z,95.283
2017-05-04T23:51:10.716Z,95.383
2017-05-04T23:54:04.965Z,95.503
2017-05-04T23:56:59.241Z,95.521
2017-05-04T23:59:53.386Z,95.381
